Time;durP1;ratioP1;P1;durP2;ratioP2;P2;SDS_P1;SDS_P2;PMS_P1;PMS_P2;Temp;Humidity;BMP_temperature;BMP_pressure;BME280_temperature;BME280_humidity;BME280_pressure;Samples;Min_cycle;Max_cycle;Signal;HPM_P1;HPM_P2
2023/11/17 00:00:25;;;;;;;15.97;9.77;;;;;;;;;;2612564;54;20424;-75
2023/11/17 00:02:51;;;;;;;19.43;11.83;;;;;;;;;;2612431;54;20469;-75
2023/11/17 00:05:19;;;;;;;13.63;9.87;;;;;;;;;;2612983;54;20412;-74
2023/11/17 00:07:46;;;;;;;14.80;10.40;;;;;;;;;;2614138;54;20391;-73
2023/11/17 00:10:13;;;;;;;18.10;11.30;;;;;;;;;;2612716;54;20984;-73
2023/11/17 00:12:41;;;;;;;20.93;10.50;;;;;;;;;;2612242;54;20969;-75
2023/11/17 00:15:08;;;;;;;15.30;11.13;;;;;;;;;;2613358;54;20406;-75
2023/11/17 00:17:34;;;;;;;15.60;11.07;;;;;;;;;;2612721;54;20448;-74
2023/11/17 00:20:00;;;;;;;17.30;10.70;;;;;;;;;;2611677;54;20434;-74
2023/11/17 00:22:26;;;;;;;15.03;10.73;;;;;;;;;;2611776;47;20457;-74
2023/11/17 00:24:54;;;;;;;15.43;11.50;;;;;;;;;;2612616;54;20954;-74
2023/11/17 00:27:21;;;;;;;15.57;10.40;;;;;;;;;;2612635;47;20449;-74
2023/11/17 00:29:48;;;;;;;18.13;10.10;;;;;;;;;;2613323;39;20819;-74
2023/11/17 00:32:14;;;;;;;13.40;8.90;;;;;;;;;;2612737;54;20952;-75
2023/11/17 00:34:40;;;;;;;13.63;9.70;;;;;;;;;;2612697;54;21005;-74
2023/11/17 00:37:07;;;;;;;15.40;10.37;;;;;;;;;;2611895;54;20534;-74
2023/11/17 00:39:39;;;;;;;12.10;9.57;;;;;;;;;;2612451;47;20474;-74
2023/11/17 00:42:07;;;;;;;16.47;10.73;;;;;;;;;;2612942;54;20371;-74
2023/11/17 00:44:33;;;;;;;18.60;10.80;;;;;;;;;;2613188;54;20419;-74
2023/11/17 00:47:00;;;;;;;20.60;10.90;;;;;;;;;;2613017;54;20493;-74
2023/11/17 00:49:26;;;;;;;19.40;11.17;;;;;;;;;;2612604;54;20404;-73
2023/11/17 00:51:52;;;;;;;14.77;10.57;;;;;;;;;;2612192;54;20419;-75
2023/11/17 00:54:25;;;;;;;16.63;10.30;;;;;;;;;;2612756;54;20423;-73
2023/11/17 00:56:54;;;;;;;17.83;11.87;;;;;;;;;;2611999;39;20814;-74
2023/11/17 00:59:20;;;;;;;17.00;11.87;;;;;;;;;;2613061;39;20896;-74
2023/11/17 01:01:46;;;;;;;19.23;11.40;;;;;;;;;;2611837;47;20412;-74
2023/11/17 01:04:13;;;;;;;16.80;10.27;;;;;;;;;;2612853;54;20426;-74
2023/11/17 01:06:40;;;;;;;17.27;10.60;;;;;;;;;;2613353;54;20405;-74
2023/11/17 01:09:06;;;;;;;16.17;10.63;;;;;;;;;;2613302;47;20434;-74
2023/11/17 01:11:33;;;;;;;15.57;11.40;;;;;;;;;;2613322;54;20429;-73
2023/11/17 01:13:59;;;;;;;15.23;10.20;;;;;;;;;;2612952;54;20577;-74
2023/11/17 01:16:26;;;;;;;20.57;11.20;;;;;;;;;;2613246;54;20439;-74
2023/11/17 01:18:52;;;;;;;12.93;11.40;;;;;;;;;;2612560;54;20455;-74
2023/11/17 01:21:18;;;;;;;14.23;9.90;;;;;;;;;;2613831;54;20433;-73
2023/11/17 01:23:44;;;;;;;16.90;11.70;;;;;;;;;;2613435;54;20432;-74
2023/11/17 01:26:10;;;;;;;20.53;10.13;;;;;;;;;;2613740;54;21029;-74
2023/11/17 01:28:36;;;;;;;20.07;10.90;;;;;;;;;;2612658;54;20405;-74
2023/11/17 01:31:04;;;;;;;21.67;11.93;;;;;;;;;;2613333;54;20458;-73
2023/11/17 01:33:30;;;;;;;23.77;11.67;;;;;;;;;;2613333;54;20424;-73
2023/11/17 01:35:56;;;;;;;16.10;11.57;;;;;;;;;;2613655;54;20432;-74
2023/11/17 01:38:22;;;;;;;22.97;11.00;;;;;;;;;;2613397;54;21025;-74
2023/11/17 01:40:49;;;;;;;15.97;10.83;;;;;;;;;;2613621;47;20611;-73
2023/11/17 01:43:16;;;;;;;15.00;11.30;;;;;;;;;;2614297;54;20455;-74
2023/11/17 01:45:44;;;;;;;12.60;10.37;;;;;;;;;;2613794;54;20397;-74
2023/11/17 01:48:12;;;;;;;16.77;10.27;;;;;;;;;;2612922;47;20412;-73
2023/11/17 01:50:38;;;;;;;17.97;10.53;;;;;;;;;;2613678;54;20401;-75
2023/11/17 01:53:04;;;;;;;22.10;13.53;;;;;;;;;;2613330;54;20416;-74
2023/11/17 01:55:31;;;;;;;16.70;13.10;;;;;;;;;;2613083;47;20395;-74
2023/11/17 01:57:58;;;;;;;16.50;12.37;;;;;;;;;;2613115;54;20460;-74
2023/11/17 02:00:24;;;;;;;22.83;11.77;;;;;;;;;;2614004;54;20382;-74
2023/11/17 02:02:53;;;;;;;14.57;9.70;;;;;;;;;;2613471;54;20438;-74
2023/11/17 02:05:22;;;;;;;15.20;11.13;;;;;;;;;;2614261;54;20490;-74
2023/11/17 02:07:54;;;;;;;18.20;12.10;;;;;;;;;;2614409;54;20482;-75
2023/11/17 02:10:31;;;;;;;21.13;12.70;;;;;;;;;;2613659;50;20418;-74
2023/11/17 02:12:59;;;;;;;21.43;11.73;;;;;;;;;;2614165;54;20391;-73
2023/11/17 02:15:27;;;;;;;16.43;11.10;;;;;;;;;;2613875;54;20447;-72
2023/11/17 02:17:56;;;;;;;19.30;11.80;;;;;;;;;;2614125;54;20446;-74
2023/11/17 02:20:25;;;;;;;17.53;11.20;;;;;;;;;;2614886;39;20809;-74
2023/11/17 02:22:53;;;;;;;18.13;12.13;;;;;;;;;;2613932;54;21046;-75
2023/11/17 02:25:44;;;;;;;15.10;11.10;;;;;;;;;;2613128;50;20407;-74
2023/11/17 02:28:20;;;;;;;14.33;10.77;;;;;;;;;;2613757;47;20419;-75
2023/11/17 02:30:56;;;;;;;18.13;11.57;;;;;;;;;;2614494;54;20427;-75
2023/11/17 02:33:26;;;;;;;16.17;11.60;;;;;;;;;;2613509;54;20418;-75
2023/11/17 02:35:55;;;;;;;21.57;11.30;;;;;;;;;;2613225;54;20395;-75
2023/11/17 02:38:21;;;;;;;16.37;12.53;;;;;;;;;;2613955;54;20449;-75
2023/11/17 02:40:47;;;;;;;16.57;11.33;;;;;;;;;;2614489;54;20443;-75
2023/11/17 02:43:14;;;;;;;14.97;10.97;;;;;;;;;;2613526;46;20494;-74
2023/11/17 02:45:42;;;;;;;17.30;11.37;;;;;;;;;;2614141;54;20502;-76
2023/11/17 02:48:10;;;;;;;15.30;11.70;;;;;;;;;;2614846;46;20560;-75
2023/11/17 02:50:51;;;;;;;13.90;11.60;;;;;;;;;;2614131;54;20432;-74
2023/11/17 02:53:24;;;;;;;15.70;10.93;;;;;;;;;;2613561;54;20426;-74
2023/11/17 02:55:52;;;;;;;14.20;11.40;;;;;;;;;;2614195;54;20464;-75
2023/11/17 02:58:18;;;;;;;17.67;12.10;;;;;;;;;;2613026;54;20428;-75
2023/11/17 03:00:51;;;;;;;16.03;12.50;;;;;;;;;;2613685;47;20419;-73
2023/11/17 03:03:23;;;;;;;14.67;11.37;;;;;;;;;;2613953;54;20746;-75
2023/11/17 03:05:58;;;;;;;22.07;11.90;;;;;;;;;;2613223;54;20602;-75
2023/11/17 03:08:24;;;;;;;16.53;11.83;;;;;;;;;;2613430;47;20432;-76
2023/11/17 03:11:00;;;;;;;18.07;12.03;;;;;;;;;;2613362;54;20402;-75
2023/11/17 03:13:27;;;;;;;21.40;13.93;;;;;;;;;;2612941;54;20442;-74
2023/11/17 03:15:53;;;;;;;17.03;13.30;;;;;;;;;;2614047;39;20807;-74
2023/11/17 03:18:19;;;;;;;23.87;13.20;;;;;;;;;;2613669;54;20414;-74
2023/11/17 03:20:45;;;;;;;21.07;14.00;;;;;;;;;;2613789;54;20430;-75
2023/11/17 03:23:11;;;;;;;19.07;13.60;;;;;;;;;;2613502;54;20455;-73
2023/11/17 03:25:39;;;;;;;20.23;13.80;;;;;;;;;;2613159;54;20462;-75
2023/11/17 03:28:13;;;;;;;20.30;14.03;;;;;;;;;;2613302;47;20427;-75
2023/11/17 03:30:39;;;;;;;23.43;14.40;;;;;;;;;;2613737;54;20423;-75
2023/11/17 03:33:05;;;;;;;23.90;14.67;;;;;;;;;;2613483;54;20434;-75
2023/11/17 03:35:32;;;;;;;18.17;14.57;;;;;;;;;;2614526;31;20924;-75
2023/11/17 03:37:59;;;;;;;22.17;14.80;;;;;;;;;;2612850;54;20429;-74
2023/11/17 03:40:25;;;;;;;17.53;13.10;;;;;;;;;;2610351;54;20422;-73
2023/11/17 03:42:52;;;;;;;21.23;13.90;;;;;;;;;;2612582;54;20406;-73
2023/11/17 03:45:19;;;;;;;23.00;16.10;;;;;;;;;;2612182;47;20407;-74
2023/11/17 03:47:45;;;;;;;22.03;18.90;;;;;;;;;;2613476;39;20768;-73
2023/11/17 03:50:14;;;;;;;26.00;17.97;;;;;;;;;;2612490;54;20558;-72
2023/11/17 03:52:41;;;;;;;37.13;18.20;;;;;;;;;;2612355;54;20436;-73
2023/11/17 03:55:07;;;;;;;40.70;17.97;;;;;;;;;;2613250;54;20451;-74
2023/11/17 03:57:36;;;;;;;28.77;17.20;;;;;;;;;;2612164;54;20414;-72
2023/11/17 04:00:05;;;;;;;36.33;18.37;;;;;;;;;;2612542;54;20428;-72
2023/11/17 04:02:32;;;;;;;51.23;20.20;;;;;;;;;;2611901;54;20439;-74
2023/11/17 04:04:58;;;;;;;63.07;23.30;;;;;;;;;;2612078;31;21135;-74
2023/11/17 04:07:24;;;;;;;60.60;26.30;;;;;;;;;;2612181;54;20398;-73
2023/11/17 04:09:50;;;;;;;68.67;25.97;;;;;;;;;;2611964;54;20399;-73
2023/11/17 04:12:16;;;;;;;96.87;31.33;;;;;;;;;;2611552;54;20415;-72
2023/11/17 04:14:42;;;;;;;100.07;28.60;;;;;;;;;;2611680;54;21391;-73
2023/11/17 04:17:13;;;;;;;101.10;28.47;;;;;;;;;;2611503;51;20416;-74
2023/11/17 04:19:40;;;;;;;94.23;28.57;;;;;;;;;;2612828;54;20392;-73
2023/11/17 04:22:07;;;;;;;54.00;25.70;;;;;;;;;;2611800;54;20456;-73
2023/11/17 04:24:33;;;;;;;109.53;33.80;;;;;;;;;;2612435;54;20566;-73
2023/11/17 04:26:59;;;;;;;184.97;37.93;;;;;;;;;;2612185;54;20407;-73
2023/11/17 04:29:25;;;;;;;151.00;36.47;;;;;;;;;;2612350;54;20410;-73
2023/11/17 04:31:54;;;;;;;127.83;36.83;;;;;;;;;;2611836;54;20487;-74
2023/11/17 04:34:21;;;;;;;77.83;29.57;;;;;;;;;;2611030;54;20412;-73
2023/11/17 04:36:47;;;;;;;225.73;42.43;;;;;;;;;;2612328;54;20421;-73
2023/11/17 04:39:17;;;;;;;221.20;45.90;;;;;;;;;;2613186;54;20443;-72
2023/11/17 04:41:43;;;;;;;135.77;35.20;;;;;;;;;;2612372;39;20980;-73
2023/11/17 04:44:09;;;;;;;76.67;29.13;;;;;;;;;;2613482;54;20404;-72
2023/11/17 04:46:35;;;;;;;132.43;34.33;;;;;;;;;;2613133;54;20397;-73
2023/11/17 04:49:01;;;;;;;80.67;30.50;;;;;;;;;;2613550;54;20405;-73
2023/11/17 04:51:27;;;;;;;154.30;37.37;;;;;;;;;;2612871;54;20381;-73
2023/11/17 04:53:53;;;;;;;250.43;46.30;;;;;;;;;;2613296;54;20374;-73
2023/11/17 04:56:19;;;;;;;185.37;38.73;;;;;;;;;;2613726;31;20845;-72
2023/11/17 04:58:45;;;;;;;112.23;37.63;;;;;;;;;;2614171;54;20433;-74
2023/11/17 05:01:14;;;;;;;136.07;40.00;;;;;;;;;;2614371;54;20431;-74
2023/11/17 05:03:41;;;;;;;164.63;44.17;;;;;;;;;;2614180;54;20431;-74
2023/11/17 05:06:07;;;;;;;144.63;43.10;;;;;;;;;;2613972;39;20821;-74
2023/11/17 05:08:38;;;;;;;144.63;44.30;;;;;;;;;;2613933;54;20452;-74
2023/11/17 05:11:05;;;;;;;140.07;41.33;;;;;;;;;;2614594;39;20946;-75
2023/11/17 05:13:32;;;;;;;170.43;45.50;;;;;;;;;;2614471;54;20504;-73
2023/11/17 05:16:03;;;;;;;189.43;48.83;;;;;;;;;;2613784;47;20535;-74
2023/11/17 05:18:29;;;;;;;150.00;46.70;;;;;;;;;;2614492;54;20396;-74
2023/11/17 05:20:55;;;;;;;144.87;45.70;;;;;;;;;;2615199;39;20463;-74
2023/11/17 05:23:21;;;;;;;127.50;42.87;;;;;;;;;;2612714;46;20451;-74
2023/11/17 05:25:47;;;;;;;124.63;40.03;;;;;;;;;;2614396;54;20432;-74
2023/11/17 05:28:14;;;;;;;133.00;39.10;;;;;;;;;;2614533;47;20433;-75
2023/11/17 05:30:40;;;;;;;122.97;39.33;;;;;;;;;;2615311;39;20820;-75
2023/11/17 05:33:06;;;;;;;145.87;41.97;;;;;;;;;;2613987;39;20891;-75
2023/11/17 05:35:32;;;;;;;137.40;39.77;;;;;;;;;;2613688;47;20431;-73
2023/11/17 05:37:59;;;;;;;158.77;45.80;;;;;;;;;;2613690;54;20427;-75
2023/11/17 05:40:26;;;;;;;163.83;43.60;;;;;;;;;;2613488;54;20415;-75
2023/11/17 05:42:52;;;;;;;173.67;45.60;;;;;;;;;;2613845;47;20424;-75
2023/11/17 05:45:19;;;;;;;164.13;43.60;;;;;;;;;;2613650;54;20389;-74
2023/11/17 05:47:45;;;;;;;138.90;40.43;;;;;;;;;;2614114;54;20441;-74
2023/11/17 05:50:12;;;;;;;150.80;43.70;;;;;;;;;;2614008;54;20438;-74
2023/11/17 05:52:39;;;;;;;202.83;43.53;;;;;;;;;;2613787;39;21120;-75
2023/11/17 05:55:06;;;;;;;111.97;35.23;;;;;;;;;;2612661;54;20522;-72
2023/11/17 05:57:32;;;;;;;79.90;30.23;;;;;;;;;;2612989;54;20437;-73
2023/11/17 05:59:58;;;;;;;126.00;34.43;;;;;;;;;;2613290;54;20522;-73
2023/11/17 06:02:27;;;;;;;137.87;37.73;;;;;;;;;;2611898;54;21308;-75
2023/11/17 06:04:53;;;;;;;77.17;28.87;;;;;;;;;;2612791;54;20443;-72
2023/11/17 06:07:20;;;;;;;102.87;33.53;;;;;;;;;;2612637;54;20401;-75
2023/11/17 06:09:48;;;;;;;139.33;35.70;;;;;;;;;;2614308;54;20414;-76
2023/11/17 06:12:15;;;;;;;96.80;30.70;;;;;;;;;;2612975;47;20515;-75
2023/11/17 06:14:41;;;;;;;93.47;36.10;;;;;;;;;;2613615;54;20404;-76
2023/11/17 06:17:11;;;;;;;60.10;25.70;;;;;;;;;;2614381;54;20421;-75
2023/11/17 06:19:37;;;;;;;120.03;36.50;;;;;;;;;;2613633;54;20422;-76
2023/11/17 06:22:07;;;;;;;111.77;32.73;;;;;;;;;;2613888;54;20447;-76
2023/11/17 06:24:33;;;;;;;83.50;33.67;;;;;;;;;;2612584;49;20416;-75
2023/11/17 06:26:59;;;;;;;113.07;34.90;;;;;;;;;;2613369;54;20414;-76
2023/11/17 06:29:26;;;;;;;114.53;35.03;;;;;;;;;;2613225;54;20395;-74
2023/11/17 06:31:52;;;;;;;114.40;33.10;;;;;;;;;;2612220;54;20395;-75
2023/11/17 06:34:18;;;;;;;90.90;33.87;;;;;;;;;;2613420;46;20419;-75
2023/11/17 06:36:45;;;;;;;134.60;37.60;;;;;;;;;;2614199;54;20421;-75
2023/11/17 06:39:16;;;;;;;122.33;34.10;;;;;;;;;;2614204;54;20430;-75
2023/11/17 06:41:42;;;;;;;125.70;35.60;;;;;;;;;;2613205;54;20470;-74
2023/11/17 06:44:11;;;;;;;107.10;31.50;;;;;;;;;;2613212;47;20411;-75
2023/11/17 06:46:41;;;;;;;93.80;30.37;;;;;;;;;;2614349;54;20433;-75
2023/11/17 06:49:12;;;;;;;100.37;32.37;;;;;;;;;;2613560;47;20407;-75
2023/11/17 06:51:45;;;;;;;95.80;32.60;;;;;;;;;;2615395;39;20794;-75
2023/11/17 06:54:13;;;;;;;91.40;30.13;;;;;;;;;;2611354;54;20402;-74
2023/11/17 06:56:42;;;;;;;83.17;28.30;;;;;;;;;;2611958;39;20837;-75
2023/11/17 06:59:09;;;;;;;69.60;30.50;;;;;;;;;;2611101;54;20427;-74
2023/11/17 07:01:35;;;;;;;71.67;34.57;;;;;;;;;;2612287;54;20431;-75
2023/11/17 07:04:05;;;;;;;75.40;28.87;;;;;;;;;;2613350;54;20416;-75
2023/11/17 07:06:31;;;;;;;72.20;31.33;;;;;;;;;;2612330;51;20423;-75
2023/11/17 07:08:57;;;;;;;85.60;33.40;;;;;;;;;;2613264;54;20419;-73
2023/11/17 07:11:24;;;;;;;70.10;30.70;;;;;;;;;;2612477;54;20420;-74
2023/11/17 07:13:52;;;;;;;94.73;33.27;;;;;;;;;;2613575;54;20420;-73
2023/11/17 07:16:20;;;;;;;98.33;31.63;;;;;;;;;;2611807;54;20417;-74
2023/11/17 07:18:47;;;;;;;106.10;33.63;;;;;;;;;;2612460;54;20425;-74
2023/11/17 07:21:13;;;;;;;71.63;33.57;;;;;;;;;;2612917;39;20471;-74
2023/11/17 07:23:43;;;;;;;71.57;29.73;;;;;;;;;;2610850;51;20994;-74
2023/11/17 07:26:19;;;;;;;74.23;31.50;;;;;;;;;;2613055;54;20398;-75
2023/11/17 07:28:50;;;;;;;68.90;32.17;;;;;;;;;;2612586;54;20407;-73
2023/11/17 07:31:19;;;;;;;80.33;33.30;;;;;;;;;;2611686;54;20467;-72
2023/11/17 07:33:45;;;;;;;98.23;35.83;;;;;;;;;;2611275;47;21403;-72
2023/11/17 07:36:17;;;;;;;91.57;33.00;;;;;;;;;;2613193;54;20423;-71
2023/11/17 07:38:44;;;;;;;74.73;31.47;;;;;;;;;;2611628;54;20427;-73
2023/11/17 07:41:12;;;;;;;67.13;32.10;;;;;;;;;;2611393;47;20449;-73
2023/11/17 07:43:39;;;;;;;99.57;35.00;;;;;;;;;;2612034;54;20416;-73
2023/11/17 07:46:05;;;;;;;58.20;32.43;;;;;;;;;;2611117;54;20403;-74
2023/11/17 07:48:31;;;;;;;71.07;32.13;;;;;;;;;;2612684;54;20483;-71
2023/11/17 07:51:00;;;;;;;68.17;31.67;;;;;;;;;;2612560;54;20453;-74
2023/11/17 07:53:28;;;;;;;66.37;32.03;;;;;;;;;;2612213;47;20422;-74
2023/11/17 07:55:54;;;;;;;108.63;31.47;;;;;;;;;;2611440;54;20414;-73
2023/11/17 07:58:21;;;;;;;54.67;29.23;;;;;;;;;;2612661;54;20420;-73
2023/11/17 08:00:50;;;;;;;62.93;30.80;;;;;;;;;;2612001;54;20381;-72
2023/11/17 08:03:17;;;;;;;51.00;26.80;;;;;;;;;;2612701;39;21205;-74
2023/11/17 08:05:43;;;;;;;54.87;27.20;;;;;;;;;;2613063;39;20959;-73
2023/11/17 08:08:09;;;;;;;58.53;29.00;;;;;;;;;;2611836;54;20435;-74
2023/11/17 08:10:35;;;;;;;52.00;27.07;;;;;;;;;;2613162;54;20406;-73
2023/11/17 08:13:03;;;;;;;52.00;27.53;;;;;;;;;;2612080;54;20441;-74
2023/11/17 08:15:30;;;;;;;49.10;26.00;;;;;;;;;;2613302;54;20816;-73
2023/11/17 08:17:56;;;;;;;54.03;30.10;;;;;;;;;;2611569;47;20420;-73
2023/11/17 08:20:22;;;;;;;68.43;30.60;;;;;;;;;;2612913;50;20427;-73
2023/11/17 08:22:48;;;;;;;54.70;28.67;;;;;;;;;;2612242;47;20458;-72
2023/11/17 08:25:16;;;;;;;72.37;34.00;;;;;;;;;;2613518;54;20393;-73
2023/11/17 08:27:42;;;;;;;63.97;31.70;;;;;;;;;;2611825;54;20484;-73
2023/11/17 08:30:08;;;;;;;68.60;30.47;;;;;;;;;;2610796;54;21437;-73
2023/11/17 08:32:38;;;;;;;62.13;33.60;;;;;;;;;;2611331;39;20556;-74
2023/11/17 08:35:04;;;;;;;58.83;31.43;;;;;;;;;;2611980;54;20467;-73
2023/11/17 08:37:32;;;;;;;65.43;31.77;;;;;;;;;;2611251;54;20391;-74
2023/11/17 08:40:08;;;;;;;61.07;29.17;;;;;;;;;;2612585;31;20895;-74
2023/11/17 08:42:34;;;;;;;50.60;29.77;;;;;;;;;;2611164;54;20411;-74
2023/11/17 08:45:07;;;;;;;49.47;29.40;;;;;;;;;;2611363;39;20830;-73
2023/11/17 08:47:35;;;;;;;51.90;29.80;;;;;;;;;;2611286;47;20439;-73
2023/11/17 08:50:02;;;;;;;52.03;30.07;;;;;;;;;;2611904;54;20401;-72
2023/11/17 08:52:34;;;;;;;60.70;32.13;;;;;;;;;;2611572;54;20380;-73
2023/11/17 08:55:01;;;;;;;69.70;34.40;;;;;;;;;;2611565;54;20397;-73
2023/11/17 08:57:27;;;;;;;63.47;33.77;;;;;;;;;;2610964;54;20419;-74
2023/11/17 08:59:53;;;;;;;59.20;35.07;;;;;;;;;;2611897;54;20462;-74
2023/11/17 09:02:19;;;;;;;54.43;32.90;;;;;;;;;;2610430;54;20397;-74
2023/11/17 09:04:46;;;;;;;50.60;28.27;;;;;;;;;;2611698;54;20553;-74
2023/11/17 09:07:13;;;;;;;40.67;25.70;;;;;;;;;;2612143;54;20420;-73
2023/11/17 09:09:41;;;;;;;44.60;27.70;;;;;;;;;;2611801;54;20501;-74
2023/11/17 09:12:07;;;;;;;49.73;27.90;;;;;;;;;;2611710;54;20424;-74
2023/11/17 09:14:36;;;;;;;52.03;27.33;;;;;;;;;;2611079;51;20507;-73
2023/11/17 09:17:06;;;;;;;40.60;24.57;;;;;;;;;;2612274;54;20494;-74
2023/11/17 09:19:41;;;;;;;37.40;24.97;;;;;;;;;;2611675;54;20411;-74
2023/11/17 09:22:08;;;;;;;34.20;23.13;;;;;;;;;;2611931;54;20563;-74
2023/11/17 09:24:35;;;;;;;35.37;22.00;;;;;;;;;;2612493;39;20861;-75
2023/11/17 09:27:03;;;;;;;35.00;21.50;;;;;;;;;;2611403;54;20586;-74
2023/11/17 09:29:31;;;;;;;35.87;24.00;;;;;;;;;;2610930;54;20465;-74
2023/11/17 09:31:57;;;;;;;30.07;21.97;;;;;;;;;;2611603;54;20385;-74
2023/11/17 09:34:23;;;;;;;32.93;21.30;;;;;;;;;;2610634;54;20407;-74
2023/11/17 09:36:49;;;;;;;31.10;20.77;;;;;;;;;;2611268;54;20419;-74
2023/11/17 09:39:15;;;;;;;34.37;22.30;;;;;;;;;;2611603;54;20389;-74
2023/11/17 09:41:44;;;;;;;33.03;22.27;;;;;;;;;;2611750;54;20417;-74
2023/11/17 09:44:10;;;;;;;29.33;20.97;;;;;;;;;;2611370;47;20517;-74
2023/11/17 09:46:56;;;;;;;27.57;19.90;;;;;;;;;;2611312;54;20410;-74
2023/11/17 09:49:24;;;;;;;32.67;20.20;;;;;;;;;;2611398;54;20409;-75
2023/11/17 09:51:51;;;;;;;27.03;18.70;;;;;;;;;;2611508;54;20392;-74
2023/11/17 09:54:23;;;;;;;32.07;18.90;;;;;;;;;;2611576;54;20406;-75
2023/11/17 09:56:53;;;;;;;26.90;19.77;;;;;;;;;;2611429;54;20483;-74
2023/11/17 09:59:19;;;;;;;25.93;18.67;;;;;;;;;;2612022;54;20390;-74
2023/11/17 10:01:47;;;;;;;24.63;17.60;;;;;;;;;;2610156;54;20429;-74
2023/11/17 10:04:14;;;;;;;32.57;18.50;;;;;;;;;;2612485;47;20422;-74
2023/11/17 10:06:41;;;;;;;22.93;17.30;;;;;;;;;;2613667;54;20483;-74
2023/11/17 10:09:11;;;;;;;26.03;15.30;;;;;;;;;;2612441;54;20386;-74
2023/11/17 10:11:38;;;;;;;22.53;16.80;;;;;;;;;;2613119;54;20395;-74
2023/11/17 10:14:06;;;;;;;20.63;14.83;;;;;;;;;;2613577;54;20789;-74
2023/11/17 10:16:33;;;;;;;22.07;15.57;;;;;;;;;;2612711;46;20466;-74
2023/11/17 10:19:00;;;;;;;19.27;15.23;;;;;;;;;;2609882;54;20454;-74
2023/11/17 10:21:26;;;;;;;20.07;17.53;;;;;;;;;;2611533;54;20387;-74
2023/11/17 10:23:53;;;;;;;22.67;14.60;;;;;;;;;;2611028;51;20407;-74
2023/11/17 10:26:20;;;;;;;22.17;15.00;;;;;;;;;;2611111;39;20792;-75
2023/11/17 10:28:47;;;;;;;21.97;16.13;;;;;;;;;;2610911;54;20426;-75
2023/11/17 10:31:13;;;;;;;24.47;15.50;;;;;;;;;;2610320;47;20431;-74
2023/11/17 10:33:42;;;;;;;20.40;15.57;;;;;;;;;;2611740;54;20566;-75
2023/11/17 10:36:12;;;;;;;23.10;17.03;;;;;;;;;;2611780;54;20419;-75
2023/11/17 10:38:45;;;;;;;23.10;16.90;;;;;;;;;;2611591;46;20449;-74
2023/11/17 10:41:12;;;;;;;19.03;14.30;;;;;;;;;;2611905;54;20442;-74
2023/11/17 10:43:54;;;;;;;19.20;14.33;;;;;;;;;;2611351;39;20802;-73
2023/11/17 10:46:26;;;;;;;21.10;15.47;;;;;;;;;;2611406;54;20418;-74
2023/11/17 10:48:55;;;;;;;23.43;16.20;;;;;;;;;;2611167;47;20491;-73
2023/11/17 10:51:22;;;;;;;22.67;15.50;;;;;;;;;;2611829;39;20886;-73
2023/11/17 10:54:08;;;;;;;21.77;15.47;;;;;;;;;;2610418;46;20439;-74
2023/11/17 10:56:36;;;;;;;17.40;13.93;;;;;;;;;;2610991;54;20428;-82
2023/11/17 10:59:03;;;;;;;22.53;13.43;;;;;;;;;;2612011;54;20446;-74
2023/11/17 11:01:35;;;;;;;21.93;14.47;;;;;;;;;;2609290;54;20449;-73
2023/11/17 11:04:09;;;;;;;19.83;15.67;;;;;;;;;;2610151;54;20399;-75
2023/11/17 11:06:38;;;;;;;22.00;16.60;;;;;;;;;;2610569;39;20829;-74
2023/11/17 11:09:05;;;;;;;28.30;16.83;;;;;;;;;;2610522;54;21004;-72
2023/11/17 11:11:32;;;;;;;21.70;16.00;;;;;;;;;;2611169;39;20797;-75
2023/11/17 11:13:59;;;;;;;22.27;15.33;;;;;;;;;;2610805;54;20426;-74
2023/11/17 11:16:32;;;;;;;21.80;13.80;;;;;;;;;;2610673;54;20386;-74
2023/11/17 11:18:59;;;;;;;17.87;14.23;;;;;;;;;;2609877;54;20983;-74
2023/11/17 11:21:29;;;;;;;25.03;15.60;;;;;;;;;;2609391;54;20386;-75
2023/11/17 11:23:59;;;;;;;27.13;17.23;;;;;;;;;;2610689;54;20455;-75
2023/11/17 11:26:25;;;;;;;29.97;15.60;;;;;;;;;;2610225;54;20407;-75
2023/11/17 11:28:52;;;;;;;17.23;15.10;;;;;;;;;;2610829;54;20390;-76
2023/11/17 11:31:20;;;;;;;22.63;15.57;;;;;;;;;;2610518;54;20423;-75
2023/11/17 11:33:46;;;;;;;22.63;15.60;;;;;;;;;;2610863;54;20517;-75
2023/11/17 11:36:13;;;;;;;26.33;15.40;;;;;;;;;;2610229;54;21020;-75
2023/11/17 11:38:49;;;;;;;17.10;13.17;;;;;;;;;;2611361;39;20810;-75
2023/11/17 11:41:16;;;;;;;19.03;14.10;;;;;;;;;;2611172;54;20453;-75
2023/11/17 11:43:57;;;;;;;16.07;13.93;;;;;;;;;;2610998;54;20387;-75
2023/11/17 11:46:24;;;;;;;19.13;14.53;;;;;;;;;;2608395;47;20447;-74
2023/11/17 11:48:52;;;;;;;21.53;15.60;;;;;;;;;;2612200;54;20428;-75
2023/11/17 11:51:23;;;;;;;20.93;14.60;;;;;;;;;;2612850;54;20437;-77
2023/11/17 11:53:59;;;;;;;17.87;13.33;;;;;;;;;;2611238;54;20438;-75
2023/11/17 11:56:40;;;;;;;21.03;14.57;;;;;;;;;;2611571;39;21011;-76
2023/11/17 11:59:06;;;;;;;20.30;15.37;;;;;;;;;;2612076;54;20443;-76
2023/11/17 12:01:34;;;;;;;22.80;14.90;;;;;;;;;;2611942;54;20419;-76
2023/11/17 12:04:01;;;;;;;23.93;16.70;;;;;;;;;;2649313;36;20423;-76
2023/11/17 12:06:29;;;;;;;22.20;14.87;;;;;;;;;;2613400;54;20427;-76
2023/11/17 12:08:59;;;;;;;18.20;14.87;;;;;;;;;;2613045;47;20451;-77
2023/11/17 12:11:35;;;;;;;21.20;14.87;;;;;;;;;;2612353;47;20446;-77
2023/11/17 12:14:05;;;;;;;18.57;14.10;;;;;;;;;;2613149;54;20431;-76
2023/11/17 12:16:31;;;;;;;23.97;14.90;;;;;;;;;;2613190;47;20464;-76
2023/11/17 12:19:01;;;;;;;19.90;14.43;;;;;;;;;;2613921;54;20414;-76
2023/11/17 12:21:27;;;;;;;20.37;15.20;;;;;;;;;;2613786;54;20435;-77
2023/11/17 12:23:54;;;;;;;22.60;15.10;;;;;;;;;;2613205;54;20572;-77
2023/11/17 12:26:27;;;;;;;25.07;15.50;;;;;;;;;;2613850;54;20388;-76
2023/11/17 12:28:54;;;;;;;18.30;13.63;;;;;;;;;;2613354;54;20996;-76
2023/11/17 12:31:20;;;;;;;18.93;14.90;;;;;;;;;;2613414;54;20435;-76
2023/11/17 12:33:49;;;;;;;23.23;15.10;;;;;;;;;;2613821;39;20798;-75
2023/11/17 12:36:16;;;;;;;19.67;14.50;;;;;;;;;;2613931;54;21060;-75
2023/11/17 12:38:44;;;;;;;21.20;14.53;;;;;;;;;;2613951;39;20479;-76
2023/11/17 12:41:16;;;;;;;16.40;13.63;;;;;;;;;;2613323;54;20415;-75
2023/11/17 12:43:48;;;;;;;21.80;15.53;;;;;;;;;;2613193;54;20402;-76
2023/11/17 12:46:14;;;;;;;19.23;14.80;;;;;;;;;;2613834;54;20412;-76
2023/11/17 12:48:43;;;;;;;22.00;14.97;;;;;;;;;;2613257;51;20424;-79
2023/11/17 12:51:09;;;;;;;23.40;16.17;;;;;;;;;;2613836;39;20849;-77
2023/11/17 12:53:42;;;;;;;26.53;16.00;;;;;;;;;;2614008;54;20430;-77
2023/11/17 12:56:08;;;;;;;24.20;16.77;;;;;;;;;;2613236;54;20418;-76
2023/11/17 12:58:35;;;;;;;21.90;16.77;;;;;;;;;;2613126;54;20427;-76
2023/11/17 13:01:14;;;;;;;17.57;15.60;;;;;;;;;;2612882;54;20477;-73
2023/11/17 13:03:44;;;;;;;20.57;14.80;;;;;;;;;;2612713;54;20414;-74
2023/11/17 13:06:11;;;;;;;21.63;16.23;;;;;;;;;;2612475;47;20443;-74
2023/11/17 13:08:40;;;;;;;27.47;16.67;;;;;;;;;;2613515;54;20419;-73
2023/11/17 13:11:07;;;;;;;25.20;17.50;;;;;;;;;;2614450;31;20859;-74
2023/11/17 13:13:41;;;;;;;19.97;14.30;;;;;;;;;;2613352;54;20367;-75
2023/11/17 13:16:09;;;;;;;17.00;15.10;;;;;;;;;;2612776;54;20412;-79
2023/11/17 13:18:36;;;;;;;17.90;15.33;;;;;;;;;;2612366;47;20450;-74
2023/11/17 13:21:03;;;;;;;22.67;16.87;;;;;;;;;;2613176;54;20384;-74
2023/11/17 13:23:29;;;;;;;22.63;16.57;;;;;;;;;;2612864;47;20459;-74
2023/11/17 13:26:06;;;;;;;19.83;15.83;;;;;;;;;;2610987;54;20582;-75
2023/11/17 13:28:38;;;;;;;19.73;15.37;;;;;;;;;;2612817;47;20976;-74
2023/11/17 13:31:18;;;;;;;22.30;17.53;;;;;;;;;;2613363;54;20420;-74
2023/11/17 13:33:45;;;;;;;19.23;16.83;;;;;;;;;;2610822;54;20518;-76
2023/11/17 13:36:11;;;;;;;24.33;17.13;;;;;;;;;;2610201;54;20442;-74
2023/11/17 13:38:56;;;;;;;21.80;18.60;;;;;;;;;;2611511;54;20412;-74
2023/11/17 13:41:26;;;;;;;20.50;18.30;;;;;;;;;;2610697;47;20428;-74
2023/11/17 13:43:53;;;;;;;21.00;17.70;;;;;;;;;;2610965;54;20408;-74
2023/11/17 13:46:20;;;;;;;21.30;16.93;;;;;;;;;;2612237;54;20513;-74
2023/11/17 13:48:49;;;;;;;22.17;19.17;;;;;;;;;;2611959;54;20384;-73
2023/11/17 13:51:19;;;;;;;20.57;18.50;;;;;;;;;;2610792;54;20399;-74
2023/11/17 13:53:45;;;;;;;22.13;19.77;;;;;;;;;;2611339;54;20411;-75
2023/11/17 13:56:11;;;;;;;27.40;16.20;;;;;;;;;;2610888;54;20422;-74
2023/11/17 13:58:37;;;;;;;18.70;16.70;;;;;;;;;;2610433;47;20431;-76
2023/11/17 14:01:04;;;;;;;24.37;18.67;;;;;;;;;;2611355;39;21273;-74
2023/11/17 14:03:31;;;;;;;24.20;18.23;;;;;;;;;;2611087;54;20484;-74
2023/11/17 14:05:57;;;;;;;18.80;16.70;;;;;;;;;;2610757;47;20411;-73
2023/11/17 14:08:24;;;;;;;23.00;18.80;;;;;;;;;;2611064;39;20821;-74
2023/11/17 14:10:50;;;;;;;21.03;16.17;;;;;;;;;;2610435;47;20415;-73
2023/11/17 14:13:17;;;;;;;20.37;16.90;;;;;;;;;;2610432;54;20411;-73
2023/11/17 14:15:43;;;;;;;18.43;16.23;;;;;;;;;;2610141;39;20789;-75
2023/11/17 14:18:10;;;;;;;24.13;18.33;;;;;;;;;;2627726;36;20542;-73
2023/11/17 14:20:36;;;;;;;22.07;16.33;;;;;;;;;;2610863;54;20554;-75